sensor_id;sensor_type;location;lat;lon;timestamp;pressure;altitude;pressure_sealevel;temperature;humidity
11971;BME280;6045;42.682;23.294;2023-04-01T00:01:04;93753.81;;;13.34;61.44
11971;BME280;6045;42.682;23.294;2023-04-01T00:03:32;93763.47;;;13.30;61.76
11971;BME280;6045;42.682;23.294;2023-04-01T00:06:01;93753.25;;;13.17;61.92
11971;BME280;6045;42.682;23.294;2023-04-01T00:08:28;93762.13;;;13.23;62.01
11971;BME280;6045;42.682;23.294;2023-04-01T00:10:56;93760.50;;;13.27;61.92
11971;BME280;6045;42.682;23.294;2023-04-01T00:13:25;93761.03;;;13.24;61.66
11971;BME280;6045;42.682;23.294;2023-04-01T00:15:53;93771.25;;;13.22;61.30
11971;BME280;6045;42.682;23.294;2023-04-01T00:18:20;93767.75;;;13.16;61.29
11971;BME280;6045;42.682;23.294;2023-04-01T00:20:48;93767.75;;;13.11;60.88
11971;BME280;6045;42.682;23.294;2023-04-01T00:23:16;93777.38;;;13.02;60.89
11971;BME280;6045;42.682;23.294;2023-04-01T00:25:43;93771.72;;;13.03;60.90
11971;BME280;6045;42.682;23.294;2023-04-01T00:28:10;93763.41;;;13.00;60.04
11971;BME280;6045;42.682;23.294;2023-04-01T00:30:39;93755.88;;;12.97;59.92
11971;BME280;6045;42.682;23.294;2023-04-01T00:33:06;93760.44;;;12.91;59.99
11971;BME280;6045;42.682;23.294;2023-04-01T00:35:32;93762.06;;;12.92;59.83
11971;BME280;6045;42.682;23.294;2023-04-01T00:38:00;93755.59;;;12.88;60.47
11971;BME280;6045;42.682;23.294;2023-04-01T00:40:30;93759.06;;;12.84;60.42
11971;BME280;6045;42.682;23.294;2023-04-01T00:42:57;93752.31;;;12.61;60.82
11971;BME280;6045;42.682;23.294;2023-04-01T00:45:28;93745.06;;;12.57;61.22
11971;BME280;6045;42.682;23.294;2023-04-01T00:47:59;93745.84;;;12.52;62.09
11971;BME280;6045;42.682;23.294;2023-04-01T00:50:28;93748.28;;;12.64;62.51
11971;BME280;6045;42.682;23.294;2023-04-01T00:52:58;93737.50;;;12.49;64.07
11971;BME280;6045;42.682;23.294;2023-04-01T00:55:27;93731.66;;;12.57;64.09
11971;BME280;6045;42.682;23.294;2023-04-01T00:57:57;93736.91;;;12.36;64.52
11971;BME280;6045;42.682;23.294;2023-04-01T01:00:25;93720.81;;;12.26;64.88
11971;BME280;6045;42.682;23.294;2023-04-01T01:02:52;93709.97;;;12.01;65.32
11971;BME280;6045;42.682;23.294;2023-04-01T01:05:26;93713.16;;;11.88;65.63
11971;BME280;6045;42.682;23.294;2023-04-01T01:08:01;93707.00;;;11.93;65.78
11971;BME280;6045;42.682;23.294;2023-04-01T01:10:32;93702.25;;;12.05;65.75
11971;BME280;6045;42.682;23.294;2023-04-01T01:13:05;93698.81;;;12.14;65.14
11971;BME280;6045;42.682;23.294;2023-04-01T01:15:41;93695.06;;;12.10;65.57
11971;BME280;6045;42.682;23.294;2023-04-01T01:18:18;93687.53;;;12.07;64.56
11971;BME280;6045;42.682;23.294;2023-04-01T01:21:14;93688.06;;;12.09;64.44
11971;BME280;6045;42.682;23.294;2023-04-01T01:24:28;93682.66;;;11.99;64.43
11971;BME280;6045;42.682;23.294;2023-04-01T01:27:02;93686.13;;;11.95;64.82
11971;BME280;6045;42.682;23.294;2023-04-01T01:29:45;93674.06;;;11.92;65.80
11971;BME280;6045;42.682;23.294;2023-04-01T01:32:25;93672.72;;;11.90;64.78
11971;BME280;6045;42.682;23.294;2023-04-01T01:35:09;93662.28;;;11.93;64.88
11971;BME280;6045;42.682;23.294;2023-04-01T01:37:40;93662.81;;;11.90;64.29
11971;BME280;6045;42.682;23.294;2023-04-01T01:40:10;93662.78;;;11.85;64.06
11971;BME280;6045;42.682;23.294;2023-04-01T01:42:39;93664.13;;;11.88;63.78
11971;BME280;6045;42.682;23.294;2023-04-01T01:45:09;93659.00;;;11.76;64.32
11971;BME280;6045;42.682;23.294;2023-04-01T01:47:37;93671.84;;;11.74;64.43
11971;BME280;6045;42.682;23.294;2023-04-01T01:50:07;93671.28;;;11.72;64.32
11971;BME280;6045;42.682;23.294;2023-04-01T01:52:34;93671.28;;;11.72;64.16
11971;BME280;6045;42.682;23.294;2023-04-01T01:55:01;93668.09;;;11.70;64.19
11971;BME280;6045;42.682;23.294;2023-04-01T01:57:30;93662.25;;;11.83;64.71
11971;BME280;6045;42.682;23.294;2023-04-01T02:00:02;93658.19;;;11.76;65.46
11971;BME280;6045;42.682;23.294;2023-04-01T02:02:30;93646.94;;;11.74;65.63
11971;BME280;6045;42.682;23.294;2023-04-01T02:04:57;93646.75;;;11.90;64.87
11971;BME280;6045;42.682;23.294;2023-04-01T02:07:28;93644.09;;;11.95;65.26
11971;BME280;6045;42.682;23.294;2023-04-01T02:09:58;93647.63;;;12.06;64.76
11971;BME280;6045;42.682;23.294;2023-04-01T02:12:26;93634.25;;;12.16;63.06
11971;BME280;6045;42.682;23.294;2023-04-01T02:14:57;93630.78;;;12.25;63.38
11971;BME280;6045;42.682;23.294;2023-04-01T02:17:29;93637.75;;;12.21;63.97
11971;BME280;6045;42.682;23.294;2023-04-01T02:19:58;93629.63;;;12.01;63.74
11971;BME280;6045;42.682;23.294;2023-04-01T02:22:28;93625.94;;;12.07;63.54
11971;BME280;6045;42.682;23.294;2023-04-01T02:24:59;93634.81;;;12.23;63.63
11971;BME280;6045;42.682;23.294;2023-04-01T02:27:27;93628.16;;;12.35;63.65
11971;BME280;6045;42.682;23.294;2023-04-01T02:29:54;93637.78;;;12.42;63.87
11971;BME280;6045;42.682;23.294;2023-04-01T02:32:21;93642.13;;;12.48;63.88
11971;BME280;6045;42.682;23.294;2023-04-01T02:34:49;93636.47;;;12.34;63.50
11971;BME280;6045;42.682;23.294;2023-04-01T02:37:15;93644.22;;;12.30;62.96
11971;BME280;6045;42.682;23.294;2023-04-01T02:39:44;93640.16;;;12.23;62.28
11971;BME280;6045;42.682;23.294;2023-04-01T02:42:11;93639.91;;;12.29;62.96
11971;BME280;6045;42.682;23.294;2023-04-01T02:44:37;93647.41;;;12.27;63.12
11971;BME280;6045;42.682;23.294;2023-04-01T02:47:04;93646.91;;;12.35;63.42
11971;BME280;6045;42.682;23.294;2023-04-01T02:49:31;93652.53;;;12.44;64.29
11971;BME280;6045;42.682;23.294;2023-04-01T02:51:58;93659.19;;;12.21;63.52
11971;BME280;6045;42.682;23.294;2023-04-01T02:54:24;93657.03;;;12.23;64.05
11971;BME280;6045;42.682;23.294;2023-04-01T02:56:53;93655.75;;;12.36;63.53
11971;BME280;6045;42.682;23.294;2023-04-01T02:59:19;93662.47;;;12.39;64.18
11971;BME280;6045;42.682;23.294;2023-04-01T03:01:46;93671.06;;;12.46;63.90
11971;BME280;6045;42.682;23.294;2023-04-01T03:04:13;93677.75;;;12.53;63.63
11971;BME280;6045;42.682;23.294;2023-04-01T03:06:40;93668.94;;;12.53;63.73
11971;BME280;6045;42.682;23.294;2023-04-01T03:09:07;93668.38;;;12.51;63.86
11971;BME280;6045;42.682;23.294;2023-04-01T03:11:34;93675.63;;;12.55;63.96
11971;BME280;6045;42.682;23.294;2023-04-01T03:14:02;93672.38;;;12.53;63.91
11971;BME280;6045;42.682;23.294;2023-04-01T03:16:29;93681.22;;;12.39;64.77
11971;BME280;6045;42.682;23.294;2023-04-01T03:18:56;93680.91;;;12.30;64.67
11971;BME280;6045;42.682;23.294;2023-04-01T03:21:25;93675.56;;;12.35;64.16
11971;BME280;6045;42.682;23.294;2023-04-01T03:23:52;93687.56;;;12.17;64.79
11971;BME280;6045;42.682;23.294;2023-04-01T03:26:19;93689.69;;;12.10;65.34
11971;BME280;6045;42.682;23.294;2023-04-01T03:28:47;93676.31;;;12.20;65.40
11971;BME280;6045;42.682;23.294;2023-04-01T03:31:15;93672.88;;;12.30;65.26
11971;BME280;6045;42.682;23.294;2023-04-01T03:33:42;93689.16;;;12.13;65.15
11971;BME280;6045;42.682;23.294;2023-04-01T03:36:09;93676.75;;;11.97;65.41
11971;BME280;6045;42.682;23.294;2023-04-01T03:38:38;93669.81;;;12.01;64.79
11971;BME280;6045;42.682;23.294;2023-04-01T03:41:06;93656.72;;;12.05;64.90
11971;BME280;6045;42.682;23.294;2023-04-01T03:43:33;93651.94;;;12.17;65.00
11971;BME280;6045;42.682;23.294;2023-04-01T03:46:00;93633.47;;;12.25;64.98
11971;BME280;6045;42.682;23.294;2023-04-01T03:48:28;93616.06;;;12.28;65.16
11971;BME280;6045;42.682;23.294;2023-04-01T03:50:54;93611.50;;;12.18;65.88
11971;BME280;6045;42.682;23.294;2023-04-01T03:53:21;93601.78;;;11.97;66.54
11971;BME280;6045;42.682;23.294;2023-04-01T03:55:48;93596.41;;;11.92;66.73
11971;BME280;6045;42.682;23.294;2023-04-01T03:58:16;93583.25;;;11.81;66.26
11971;BME280;6045;42.682;23.294;2023-04-01T04:00:43;93582.44;;;11.70;67.12
11971;BME280;6045;42.682;23.294;2023-04-01T04:03:10;93575.75;;;11.83;67.31
11971;BME280;6045;42.682;23.294;2023-04-01T04:05:46;93573.94;;;11.98;66.66
11971;BME280;6045;42.682;23.294;2023-04-01T04:08:13;93568.59;;;12.08;67.31
11971;BME280;6045;42.682;23.294;2023-04-01T04:10:40;93558.97;;;12.12;67.47
11971;BME280;6045;42.682;23.294;2023-04-01T04:13:07;93558.97;;;12.12;67.69
11971;BME280;6045;42.682;23.294;2023-04-01T04:15:34;93563.28;;;12.18;66.68
11971;BME280;6045;42.682;23.294;2023-04-01T04:18:00;93548.56;;;12.31;72.87
11971;BME280;6045;42.682;23.294;2023-04-01T04:20:27;93536.78;;;12.57;79.66
11971;BME280;6045;42.682;23.294;2023-04-01T04:22:55;93548.28;;;13.13;86.41
11971;BME280;6045;42.682;23.294;2023-04-01T04:25:22;93533.75;;;13.24;71.34
11971;BME280;6045;42.682;23.294;2023-04-01T04:27:49;93538.38;;;13.09;64.14
11971;BME280;6045;42.682;23.294;2023-04-01T04:30:16;93532.75;;;12.70;63.34
11971;BME280;6045;42.682;23.294;2023-04-01T04:32:43;93540.25;;;12.58;64.24
11971;BME280;6045;42.682;23.294;2023-04-01T04:35:09;93538.94;;;12.50;64.17
11971;BME280;6045;42.682;23.294;2023-04-01T04:37:36;93533.81;;;12.54;64.11
11971;BME280;6045;42.682;23.294;2023-04-01T04:40:05;93541.34;;;12.47;64.06
11971;BME280;6045;42.682;23.294;2023-04-01T04:42:32;93530.34;;;12.28;65.01
11971;BME280;6045;42.682;23.294;2023-04-01T04:44:59;93519.34;;;12.34;65.26
11971;BME280;6045;42.682;23.294;2023-04-01T04:47:26;93508.38;;;12.41;64.73
11971;BME280;6045;42.682;23.294;2023-04-01T04:49:53;93514.53;;;12.42;64.70
11971;BME280;6045;42.682;23.294;2023-04-01T04:52:19;93519.34;;;12.34;64.45
11971;BME280;6045;42.682;23.294;2023-04-01T04:54:46;93502.47;;;12.29;65.05
11971;BME280;6045;42.682;23.294;2023-04-01T04:57:14;93512.66;;;12.37;64.96
11971;BME280;6045;42.682;23.294;2023-04-01T04:59:41;93515.34;;;12.47;64.75
11971;BME280;6045;42.682;23.294;2023-04-01T05:02:08;93502.75;;;12.53;65.32
11971;BME280;6045;42.682;23.294;2023-04-01T05:04:35;93505.69;;;12.46;65.47
11971;BME280;6045;42.682;23.294;2023-04-01T05:07:02;93497.09;;;12.44;64.38
11971;BME280;6045;42.682;23.294;2023-04-01T05:09:29;93486.13;;;12.41;63.86
11971;BME280;6045;42.682;23.294;2023-04-01T05:11:56;93485.03;;;12.36;63.77
11971;BME280;6045;42.682;23.294;2023-04-01T05:14:24;93484.00;;;12.17;62.91
11971;BME280;6045;42.682;23.294;2023-04-01T05:16:51;93493.88;;;11.97;63.90
11971;BME280;6045;42.682;23.294;2023-04-01T05:19:19;93459.31;;;11.90;62.95
11971;BME280;6045;42.682;23.294;2023-04-01T05:21:46;93464.13;;;11.83;63.60
11971;BME280;6045;42.682;23.294;2023-04-01T05:24:13;93453.69;;;11.77;64.03
11971;BME280;6045;42.682;23.294;2023-04-01T05:26:40;93440.31;;;11.82;63.20
11971;BME280;6045;42.682;23.294;2023-04-01T05:29:06;93468.94;;;11.81;63.10
11971;BME280;6045;42.682;23.294;2023-04-01T05:31:34;93480.16;;;11.73;62.19
11971;BME280;6045;42.682;23.294;2023-04-01T05:34:01;93455.56;;;11.76;62.21
11971;BME280;6045;42.682;23.294;2023-04-01T05:36:28;93455.88;;;12.20;61.77
11971;BME280;6045;42.682;23.294;2023-04-01T05:38:55;93466.56;;;12.35;61.43
11971;BME280;6045;42.682;23.294;2023-04-01T05:41:22;93457.44;;;12.66;59.77
11971;BME280;6045;42.682;23.294;2023-04-01T05:43:49;93442.50;;;13.29;57.65
11971;BME280;6045;42.682;23.294;2023-04-01T05:46:15;93445.34;;;13.97;57.00
11971;BME280;6045;42.682;23.294;2023-04-01T05:48:44;93466.66;;;14.27;55.29
11971;BME280;6045;42.682;23.294;2023-04-01T05:51:12;93460.72;;;14.30;53.66
11971;BME280;6045;42.682;23.294;2023-04-01T05:53:40;93439.28;;;14.82;53.03
11971;BME280;6045;42.682;23.294;2023-04-01T05:56:07;93445.09;;;15.42;51.57
11971;BME280;6045;42.682;23.294;2023-04-01T05:58:34;93436.50;;;16.19;47.51
11971;BME280;6045;42.682;23.294;2023-04-01T06:01:02;93434.41;;;16.49;47.67
11971;BME280;6045;42.682;23.294;2023-04-01T06:03:29;93449.09;;;16.75;47.68
11971;BME280;6045;42.682;23.294;2023-04-01T06:05:57;93441.97;;;17.38;45.51
11971;BME280;6045;42.682;23.294;2023-04-01T06:08:26;93446.28;;;17.53;46.05
11971;BME280;6045;42.682;23.294;2023-04-01T06:11:03;93436.63;;;18.01;44.96
11971;BME280;6045;42.682;23.294;2023-04-01T06:13:43;93432.25;;;18.14;43.83
11971;BME280;6045;42.682;23.294;2023-04-01T06:16:20;93438.63;;;17.96;42.68
11971;BME280;6045;42.682;23.294;2023-04-01T06:19:05;93437.91;;;17.54;43.21
11971;BME280;6045;42.682;23.294;2023-04-01T06:22:00;93433.94;;;17.06;45.53
11971;BME280;6045;42.682;23.294;2023-04-01T06:24:41;93447.97;;;16.43;48.12
11971;BME280;6045;42.682;23.294;2023-04-01T06:27:18;93441.66;;;16.34;47.31
11971;BME280;6045;42.682;23.294;2023-04-01T06:29:52;93436.38;;;16.11;47.22
11971;BME280;6045;42.682;23.294;2023-04-01T06:32:46;93437.00;;;16.03;46.70
11971;BME280;6045;42.682;23.294;2023-04-01T06:35:29;93429.06;;;15.93;47.38
11971;BME280;6045;42.682;23.294;2023-04-01T06:38:10;93427.19;;;15.93;47.54
11971;BME280;6045;42.682;23.294;2023-04-01T06:40:53;93421.66;;;15.85;47.48
11971;BME280;6045;42.682;23.294;2023-04-01T06:43:25;93401.63;;;15.72;47.12
11971;BME280;6045;42.682;23.294;2023-04-01T06:46:04;93396.16;;;15.58;48.13
11971;BME280;6045;42.682;23.294;2023-04-01T06:48:45;93401.38;;;15.50;49.80
11971;BME280;6045;42.682;23.294;2023-04-01T06:51:23;93414.56;;;15.28;49.23
11971;BME280;6045;42.682;23.294;2023-04-01T06:54:01;93383.25;;;15.13;49.76
11971;BME280;6045;42.682;23.294;2023-04-01T06:56:29;93379.97;;;15.16;51.65
11971;BME280;6045;42.682;23.294;2023-04-01T06:58:58;93392.81;;;15.00;52.32
11971;BME280;6045;42.682;23.294;2023-04-01T07:01:30;93383.72;;;14.96;51.98
11971;BME280;6045;42.682;23.294;2023-04-01T07:04:00;93394.56;;;14.86;52.87
11971;BME280;6045;42.682;23.294;2023-04-01T07:06:31;93402.78;;;15.00;69.46
11971;BME280;6045;42.682;23.294;2023-04-01T07:09:04;93398.97;;;15.67;58.93
11971;BME280;6045;42.682;23.294;2023-04-01T07:11:34;93396.50;;;16.08;56.87
11971;BME280;6045;42.682;23.294;2023-04-01T07:14:04;93390.13;;;16.36;56.16
11971;BME280;6045;42.682;23.294;2023-04-01T07:16:36;93384.03;;;16.63;52.83
11971;BME280;6045;42.682;23.294;2023-04-01T07:19:10;93372.34;;;16.94;54.39
11971;BME280;6045;42.682;23.294;2023-04-01T07:21:41;93382.28;;;17.26;53.60
11971;BME280;6045;42.682;23.294;2023-04-01T07:24:16;93384.44;;;17.65;54.52
11971;BME280;6045;42.682;23.294;2023-04-01T07:26:48;93384.78;;;17.86;50.37
11971;BME280;6045;42.682;23.294;2023-04-01T07:29:18;93410.19;;;17.22;48.67
11971;BME280;6045;42.682;23.294;2023-04-01T07:32:09;93390.81;;;16.60;48.61
11971;BME280;6045;42.682;23.294;2023-04-01T07:34:46;93385.53;;;16.36;50.78
11971;BME280;6045;42.682;23.294;2023-04-01T07:37:22;93419.22;;;16.02;51.70
11971;BME280;6045;42.682;23.294;2023-04-01T07:40:03;93396.88;;;16.01;51.59
11971;BME280;6045;42.682;23.294;2023-04-01T07:42:45;93402.47;;;16.05;52.43
11971;BME280;6045;42.682;23.294;2023-04-01T07:45:20;93400.00;;;16.08;52.61
11971;BME280;6045;42.682;23.294;2023-04-01T07:47:59;93375.75;;;16.08;52.97
11971;BME280;6045;42.682;23.294;2023-04-01T07:50:36;93384.50;;;16.00;52.43
11971;BME280;6045;42.682;23.294;2023-04-01T07:53:13;93381.75;;;15.87;52.65
11971;BME280;6045;42.682;23.294;2023-04-01T07:55:49;93378.81;;;15.83;53.65
11971;BME280;6045;42.682;23.294;2023-04-01T07:58:26;93376.72;;;15.80;54.25
11971;BME280;6045;42.682;23.294;2023-04-01T08:00:59;93376.63;;;15.85;53.84
11971;BME280;6045;42.682;23.294;2023-04-01T08:03:42;93370.66;;;15.88;53.45
11971;BME280;6045;42.682;23.294;2023-04-01T08:06:19;93377.72;;;15.84;53.66
11971;BME280;6045;42.682;23.294;2023-04-01T08:08:58;93377.59;;;15.94;53.75
11971;BME280;6045;42.682;23.294;2023-04-01T08:11:40;93362.28;;;16.08;53.62
11971;BME280;6045;42.682;23.294;2023-04-01T08:14:13;93357.53;;;16.32;51.80
11971;BME280;6045;42.682;23.294;2023-04-01T08:16:48;93358.16;;;16.29;52.99
11971;BME280;6045;42.682;23.294;2023-04-01T08:19:25;93349.97;;;16.34;53.29
11971;BME280;6045;42.682;23.294;2023-04-01T08:21:58;93339.69;;;16.50;51.65
11971;BME280;6045;42.682;23.294;2023-04-01T08:24:35;93332.63;;;16.54;52.42
11971;BME280;6045;42.682;23.294;2023-04-01T08:27:11;93336.56;;;16.62;51.45
11971;BME280;6045;42.682;23.294;2023-04-01T08:29:42;93322.16;;;16.80;50.63
11971;BME280;6045;42.682;23.294;2023-04-01T08:32:12;93320.56;;;17.06;50.99
11971;BME280;6045;42.682;23.294;2023-04-01T08:34:46;93312.50;;;18.13;48.48
11971;BME280;6045;42.682;23.294;2023-04-01T08:37:15;93282.47;;;19.41;44.75
11971;BME280;6045;42.682;23.294;2023-04-01T08:39:47;93279.84;;;20.56;43.32
11971;BME280;6045;42.682;23.294;2023-04-01T08:42:31;93261.34;;;21.54;40.71
11971;BME280;6045;42.682;23.294;2023-04-01T08:45:14;93259.41;;;22.49;38.18
11971;BME280;6045;42.682;23.294;2023-04-01T08:48:23;93261.97;;;22.67;39.27
11971;BME280;6045;42.682;23.294;2023-04-01T08:51:35;93264.44;;;23.41;37.02
11971;BME280;6045;42.682;23.294;2023-04-01T08:54:19;93253.97;;;23.31;36.31
11971;BME280;6045;42.682;23.294;2023-04-01T08:57:00;93259.97;;;23.60;35.54
11971;BME280;6045;42.682;23.294;2023-04-01T08:59:55;93271.84;;;23.92;35.17
11971;BME280;6045;42.682;23.294;2023-04-01T09:02:37;93277.22;;;23.76;35.39
11971;BME280;6045;42.682;23.294;2023-04-01T09:05:38;93270.41;;;23.34;36.12
11971;BME280;6045;42.682;23.294;2023-04-01T09:08:27;93267.56;;;22.70;36.35
11971;BME280;6045;42.682;23.294;2023-04-01T09:11:00;93264.44;;;22.27;35.12
11971;BME280;6045;42.682;23.294;2023-04-01T09:13:56;93261.00;;;21.85;35.77
11971;BME280;6045;42.682;23.294;2023-04-01T09:16:59;93251.75;;;21.57;36.03
11971;BME280;6045;42.682;23.294;2023-04-01T09:19:41;93251.97;;;21.43;36.78
11971;BME280;6045;42.682;23.294;2023-04-01T09:22:25;93251.66;;;21.24;36.20
11971;BME280;6045;42.682;23.294;2023-04-01T09:25:30;93256.09;;;20.91;38.29
11971;BME280;6045;42.682;23.294;2023-04-01T09:28:09;93245.03;;;20.67;38.68
11971;BME280;6045;42.682;23.294;2023-04-01T09:31:10;93242.78;;;20.69;38.20
11971;BME280;6045;42.682;23.294;2023-04-01T09:34:07;93232.53;;;20.74;38.32
11971;BME280;6045;42.682;23.294;2023-04-01T09:36:44;93230.34;;;20.68;38.76
11971;BME280;6045;42.682;23.294;2023-04-01T09:39:34;93220.25;;;20.68;38.44
11971;BME280;6045;42.682;23.294;2023-04-01T09:42:31;93220.56;;;20.67;37.88
11971;BME280;6045;42.682;23.294;2023-04-01T09:45:01;93205.41;;;20.66;37.74
11971;BME280;6045;42.682;23.294;2023-04-01T09:47:45;93200.22;;;21.10;37.29
11971;BME280;6045;42.682;23.294;2023-04-01T09:50:31;93191.38;;;22.17;36.13
11971;BME280;6045;42.682;23.294;2023-04-01T09:53:17;93184.69;;;22.83;34.07
11971;BME280;6045;42.682;23.294;2023-04-01T10:05:08;93162.31;;;23.66;32.50
11971;BME280;6045;42.682;23.294;2023-04-01T10:08:12;93144.00;;;23.39;32.80
11971;BME280;6045;42.682;23.294;2023-04-01T10:11:02;93149.94;;;22.68;33.00
11971;BME280;6045;42.682;23.294;2023-04-01T10:20:01;93144.84;;;21.24;46.78
11971;BME280;6045;42.682;23.294;2023-04-01T10:25:57;93138.84;;;21.71;34.93
11971;BME280;6045;42.682;23.294;2023-04-01T10:29:00;93135.44;;;22.07;37.52
11971;BME280;6045;42.682;23.294;2023-04-01T10:31:47;93136.28;;;22.32;38.95
11971;BME280;6045;42.682;23.294;2023-04-01T10:34:47;93141.63;;;22.40;37.58
11971;BME280;6045;42.682;23.294;2023-04-01T10:37:42;93137.63;;;22.26;39.09
11971;BME280;6045;42.682;23.294;2023-04-01T10:40:54;93128.69;;;22.25;38.59
11971;BME280;6045;42.682;23.294;2023-04-01T10:47:07;93123.59;;;21.58;36.61
11971;BME280;6045;42.682;23.294;2023-04-01T10:49:44;93112.34;;;21.27;40.28
11971;BME280;6045;42.682;23.294;2023-04-01T10:52:46;93122.75;;;20.75;37.32
11971;BME280;6045;42.682;23.294;2023-04-01T10:55:55;93117.75;;;20.57;40.68
11971;BME280;6045;42.682;23.294;2023-04-01T10:58:55;93098.03;;;20.68;40.81
11971;BME280;6045;42.682;23.294;2023-04-01T11:07:59;93100.94;;;21.13;41.45
11971;BME280;6045;42.682;23.294;2023-04-01T11:11:25;93101.00;;;20.84;37.58
11971;BME280;6045;42.682;23.294;2023-04-01T11:14:34;93091.31;;;20.95;40.64
11971;BME280;6045;42.682;23.294;2023-04-01T11:20:37;93103.63;;;20.42;38.05
11971;BME280;6045;42.682;23.294;2023-04-01T11:23:17;93117.78;;;20.27;38.22
11971;BME280;6045;42.682;23.294;2023-04-01T11:26:01;93131.06;;;20.03;39.92
11971;BME280;6045;42.682;23.294;2023-04-01T11:28:48;93151.44;;;19.46;37.21
11971;BME280;6045;42.682;23.294;2023-04-01T11:31:34;93170.25;;;18.52;39.21
11971;BME280;6045;42.682;23.294;2023-04-01T11:34:13;93215.78;;;18.19;43.72
11971;BME280;6045;42.682;23.294;2023-04-01T11:36:49;93187.16;;;17.87;45.33
11971;BME280;6045;42.682;23.294;2023-04-01T11:39:24;93220.19;;;17.62;48.38
11971;BME280;6045;42.682;23.294;2023-04-01T11:42:04;93236.00;;;16.83;49.67
11971;BME280;6045;42.682;23.294;2023-04-01T11:44:39;93265.50;;;16.53;55.71
11971;BME280;6045;42.682;23.294;2023-04-01T11:47:22;93303.16;;;16.12;61.22
11971;BME280;6045;42.682;23.294;2023-04-01T11:50:01;93333.25;;;15.49;65.50
11971;BME280;6045;42.682;23.294;2023-04-01T11:55:28;93347.34;;;14.23;72.17
11971;BME280;6045;42.682;23.294;2023-04-01T11:58:11;93352.38;;;14.01;72.55
11971;BME280;6045;42.682;23.294;2023-04-01T12:00:54;93362.13;;;13.92;75.85
11971;BME280;6045;42.682;23.294;2023-04-01T12:03:38;93376.63;;;14.24;74.92
11971;BME280;6045;42.682;23.294;2023-04-01T12:06:14;93353.50;;;14.57;75.25
11971;BME280;6045;42.682;23.294;2023-04-01T12:08:46;93363.66;;;15.07;73.98
11971;BME280;6045;42.682;23.294;2023-04-01T12:11:25;93345.28;;;15.33;72.37
11971;BME280;6045;42.682;23.294;2023-04-01T12:14:04;93343.59;;;15.61;71.93
11971;BME280;6045;42.682;23.294;2023-04-01T12:16:46;93336.50;;;16.48;69.46
11971;BME280;6045;42.682;23.294;2023-04-01T12:19:23;93331.44;;;17.28;68.23
11971;BME280;6045;42.682;23.294;2023-04-01T12:22:02;93324.84;;;18.06;66.49
11971;BME280;6045;42.682;23.294;2023-04-01T12:24:46;93335.28;;;18.65;65.59
11971;BME280;6045;42.682;23.294;2023-04-01T12:30:18;93347.41;;;18.76;62.55
11971;BME280;6045;42.682;23.294;2023-04-01T12:32:56;93352.13;;;18.18;64.90
11971;BME280;6045;42.682;23.294;2023-04-01T12:35:37;93358.75;;;17.90;64.00
11971;BME280;6045;42.682;23.294;2023-04-01T12:38:19;93353.72;;;17.47;65.63
11971;BME280;6045;42.682;23.294;2023-04-01T12:41:05;93360.56;;;17.04;67.73
11971;BME280;6045;42.682;23.294;2023-04-01T12:47:15;93344.78;;;16.38;71.27
11971;BME280;6045;42.682;23.294;2023-04-01T12:50:09;93341.81;;;16.21;72.43
11971;BME280;6045;42.682;23.294;2023-04-01T12:52:55;93346.09;;;16.08;72.61
11971;BME280;6045;42.682;23.294;2023-04-01T12:55:43;93337.75;;;15.91;73.32
11971;BME280;6045;42.682;23.294;2023-04-01T12:58:43;93327.56;;;15.69;73.96
11971;BME280;6045;42.682;23.294;2023-04-01T13:01:34;93311.34;;;15.56;74.81
11971;BME280;6045;42.682;23.294;2023-04-01T13:04:35;93314.16;;;15.27;74.51
11971;BME280;6045;42.682;23.294;2023-04-01T13:07:16;93317.91;;;15.07;76.04
11971;BME280;6045;42.682;23.294;2023-04-01T13:09:56;93285.50;;;14.75;73.42
11971;BME280;6045;42.682;23.294;2023-04-01T13:12:50;93254.50;;;14.59;70.24
11971;BME280;6045;42.682;23.294;2023-04-01T13:15:27;93245.81;;;14.67;69.56
11971;BME280;6045;42.682;23.294;2023-04-01T13:18:05;93271.66;;;15.05;71.84
11971;BME280;6045;42.682;23.294;2023-04-01T13:20:43;93276.06;;;15.71;74.08
11971;BME280;6045;42.682;23.294;2023-04-01T13:23:23;93265.34;;;16.44;73.86
11971;BME280;6045;42.682;23.294;2023-04-01T13:26:01;93241.06;;;17.12;72.15
11971;BME280;6045;42.682;23.294;2023-04-01T13:28:34;93244.66;;;17.57;69.24
11971;BME280;6045;42.682;23.294;2023-04-01T13:31:09;93245.63;;;17.25;67.90
11971;BME280;6045;42.682;23.294;2023-04-01T13:33:47;93234.22;;;17.28;68.28
11971;BME280;6045;42.682;23.294;2023-04-01T13:36:26;93229.88;;;17.54;64.64
11971;BME280;6045;42.682;23.294;2023-04-01T13:39:08;93224.94;;;17.78;65.05
11971;BME280;6045;42.682;23.294;2023-04-01T13:41:55;93218.66;;;17.92;61.97
11971;BME280;6045;42.682;23.294;2023-04-01T13:44:32;93208.34;;;17.94;55.14
11971;BME280;6045;42.682;23.294;2023-04-01T13:47:19;93207.56;;;18.02;56.31
11971;BME280;6045;42.682;23.294;2023-04-01T13:50:31;93193.13;;;17.75;51.84
11971;BME280;6045;42.682;23.294;2023-04-01T13:53:21;93199.84;;;17.42;51.67
11971;BME280;6045;42.682;23.294;2023-04-01T13:56:06;93188.97;;;17.34;55.24
11971;BME280;6045;42.682;23.294;2023-04-01T13:58:55;93199.34;;;17.18;51.53
11971;BME280;6045;42.682;23.294;2023-04-01T14:01:32;93188.22;;;16.97;50.39
11971;BME280;6045;42.682;23.294;2023-04-01T14:04:21;93174.81;;;16.92;49.48
11971;BME280;6045;42.682;23.294;2023-04-01T14:07:08;93179.38;;;16.70;52.98
11971;BME280;6045;42.682;23.294;2023-04-01T14:09:57;93170.09;;;16.49;52.10
11971;BME280;6045;42.682;23.294;2023-04-01T14:12:32;93166.19;;;16.41;51.63
11971;BME280;6045;42.682;23.294;2023-04-01T14:15:18;93177.06;;;16.50;51.68
11971;BME280;6045;42.682;23.294;2023-04-01T14:18:01;93176.78;;;16.51;51.95
11971;BME280;6045;42.682;23.294;2023-04-01T14:20:37;93160.69;;;16.46;51.17
11971;BME280;6045;42.682;23.294;2023-04-01T14:23:42;93148.41;;;16.54;49.58
11971;BME280;6045;42.682;23.294;2023-04-01T14:26:31;93156.09;;;16.60;51.27
11971;BME280;6045;42.682;23.294;2023-04-01T14:29:11;93136.03;;;16.53;51.55